createdAt,value
2018-01-24T00:00:05.201Z,976.85
2018-01-24T00:15:05.249Z,976.39
2018-01-24T00:30:05.068Z,976.8
2018-01-24T00:45:04.944Z,976.39
2018-01-24T01:00:04.600Z,976.37
2018-01-24T01:15:04.709Z,976.56
2018-01-24T01:30:05.149Z,976.53
2018-01-24T01:45:05.023Z,976.02
2018-01-24T02:00:04.709Z,976.39
2018-01-24T02:15:05.119Z,976.56
2018-01-24T02:30:04.882Z,969.26
2018-01-24T02:45:04.771Z,969.47
2018-01-24T03:00:04.684Z,969.66
2018-01-24T03:15:05.348Z,969.66
2018-01-24T03:30:05.258Z,970.19
2018-01-24T03:45:04.834Z,970.14
2018-01-24T04:00:04.749Z,970.33
2018-01-24T04:15:04.949Z,970.46
2018-01-24T04:30:05.338Z,970.52
2018-01-24T04:45:05.461Z,970.6
2018-01-24T05:00:04.627Z,970.73
2018-01-24T05:15:05.254Z,971.05
2018-01-24T05:30:05.331Z,971.11
2018-01-24T05:45:06.551Z,971.4
2018-01-24T06:00:05.513Z,971.35
2018-01-24T06:15:04.395Z,971.35
2018-01-24T06:30:04.533Z,971.29
2018-01-24T06:45:04.414Z,971.45
2018-01-24T07:00:05.290Z,971.21
2018-01-24T07:15:05.242Z,971.32
2018-01-24T07:30:07.958Z,971.05
2018-01-24T07:45:05.907Z,971.08
2018-01-24T08:00:05.819Z,969.85
2018-01-24T08:15:06.374Z,974.56
2018-01-24T08:30:04.500Z,972.07
2018-01-24T08:45:04.373Z,971.59
2018-01-24T09:00:04.808Z,968.57
2018-01-24T09:15:05.243Z,974.81
2018-01-24T09:30:04.539Z,968.4
2018-01-24T09:45:04.940Z,970.4
2018-01-24T10:00:04.391Z,970.48
2018-01-24T10:15:04.824Z,970.32
2018-01-24T10:30:04.398Z,970.37
2018-01-24T10:45:04.782Z,970.13
2018-01-24T11:00:04.669Z,969.78
2018-01-24T11:15:05.114Z,969.21
2018-01-24T11:30:04.710Z,968.92
2018-01-24T11:45:08.457Z,968.38
2018-01-24T12:00:04.862Z,967.94
2018-01-24T12:15:04.725Z,967.43
2018-01-24T12:30:04.901Z,967.22
2018-01-24T12:45:04.376Z,966.92
2018-01-24T13:00:04.787Z,966.3
2018-01-24T13:15:05.181Z,966.16
2018-01-24T13:30:04.784Z,966
2018-01-24T13:45:05.115Z,965.62
2018-01-24T14:00:05.584Z,965.41
2018-01-24T14:15:04.505Z,965.41
2018-01-24T14:30:05.675Z,965.33
2018-01-24T14:45:04.573Z,965.38
2018-01-24T15:00:05.040Z,965.24
2018-01-24T15:15:05.020Z,965.19
2018-01-24T15:30:05.147Z,965.46
2018-01-24T15:45:04.496Z,965.76
2018-01-24T16:00:05.509Z,966.03
2018-01-24T16:15:04.825Z,966.41
2018-01-24T16:30:04.386Z,966.62
2018-01-24T16:45:05.466Z,967
2018-01-24T17:00:04.842Z,967.3
2018-01-24T17:15:05.282Z,967.76
2018-01-24T17:30:05.492Z,967.92
2018-01-24T17:45:08.009Z,968.08
2018-01-24T18:00:05.888Z,968.27
2018-01-24T18:15:04.511Z,968.59
2018-01-24T18:30:05.312Z,968.73
2018-01-24T18:45:05.423Z,968.86
2018-01-24T19:00:05.993Z,969.05
2018-01-24T19:15:04.759Z,969.13
2018-01-24T19:30:05.127Z,969.19
2018-01-24T19:45:05.270Z,969.38
2018-01-24T20:00:05.202Z,969.56
2018-01-24T20:15:06.131Z,969.48
2018-01-24T20:30:06.161Z,969.75
2018-01-24T20:45:04.988Z,962.75
2018-01-24T21:00:04.737Z,962.81
2018-01-24T21:15:05.851Z,963.07
2018-01-24T21:30:07.676Z,963.18
2018-01-24T21:45:19.841Z,963.02
2018-01-24T22:00:06.399Z,962.91
2018-01-24T22:15:08.388Z,962.62
2018-01-24T22:30:05.692Z,969.16
2018-01-24T22:45:05.705Z,968.3
2018-01-24T23:00:04.717Z,968.32
2018-01-24T23:15:06.379Z,968.94
2018-01-24T23:30:06.448Z,969.21
2018-01-24T23:45:07.513Z,969.54
